Main page
METAR-TAF:

METAR-TAF

Airports :

Northolt, England

RAF Northolt

latitude: 51-33N, longitude: 000-25W, elevation: 38 m

Current weather observation

The report was made 1 hour and 2 minutes ago, at 03:50 UTC
Wind 14 kt from the West
Temperature 11°C
Humidity 71%
Pressure 1008 hPa
Visibility 10 km or more

METAR: EGWU 220350Z AUTO 27014KT 9999 // SCT038/// BKN190/// 11/06 Q1008

Time: 05:52 (04:52 UTC)

Forecast

The report was made 6 hours and 4 minutes ago, at 22:48 UTC
Forecast valid from 22 at 00 UTC to 22 at 18 UTC
Wind 15 kt from the West/Southwest
Visibility 10 km or more
Broken clouds at a height of 2500 ft
Temporary
from 22 at 00 UTC to 22 at 09 UTC
Broken clouds at a height of 2000 ft
Becoming
from 22 at 07 UTC to 22 at 10 UTC
Wind 18 kt from the West with gusts up to 28 kt
Becoming
from 22 at 14 UTC to 22 at 16 UTC
Wind 12 kt from the West

TAF: EGWU 212248Z 2200/2218 24015KT 9999 BKN025 TEMPO 2200/2209 BKN020 BECMG 2207/2210 28018G28KT BECMG 2214/2216 27012KT

Weather observations and forecasts of more than 4000 airports (METAR and TAF reports).

The available stations are represented by yellow and red dots on the map.

Hover mouse over dot to see the name of the station.

Then click to see weather observations and forecasts.

To change the map : click on the green buttons with a black cross to zoom in, on the green button with a dash to zoom out, or on the green arrows for adjacent maps.


METAR-TAF: